Time;durP1;ratioP1;P1;durP2;ratioP2;P2;SDS_P1;SDS_P2;PMS_P1;PMS_P2;Temp;Humidity;BMP_temperature;BMP_pressure;BME280_temperature;BME280_humidity;BME280_pressure;Samples;Min_cycle;Max_cycle;Signal;HPM_P1;HPM_P2
2023/12/09 00:01:19;;;;;;;16.57;10.60;;;6.30;99.90;;;;;;5115944;28;20245;-72
2023/12/09 00:03:45;;;;;;;15.57;10.70;;;6.40;99.90;;;;;;5115862;28;20198;-72
2023/12/09 00:06:10;;;;;;;13.73;9.97;;;6.40;99.90;;;;;;5115935;28;20173;-72
2023/12/09 00:08:37;;;;;;;18.97;10.73;;;6.40;99.90;;;;;;5097539;28;20196;-72
2023/12/09 00:11:03;;;;;;;13.57;10.37;;;6.50;99.90;;;;;;5096858;28;20172;-72
2023/12/09 00:13:30;;;;;;;16.63;10.20;;;6.50;99.90;;;;;;5097930;28;20212;-72
2023/12/09 00:15:56;;;;;;;15.50;9.80;;;6.40;99.90;;;;;;5116638;28;20639;-72
2023/12/09 00:18:22;;;;;;;12.70;9.53;;;6.40;99.90;;;;;;5117136;28;20249;-72
2023/12/09 00:20:48;;;;;;;13.33;8.70;;;6.30;99.90;;;;;;5097800;28;20173;-72
2023/12/09 00:23:13;;;;;;;15.33;8.63;;;6.30;99.90;;;;;;5098742;28;20215;-71
2023/12/09 00:25:39;;;;;;;14.47;8.93;;;6.30;99.90;;;;;;5116813;28;20544;-72
2023/12/09 00:28:05;;;;;;;14.90;8.43;;;6.30;99.90;;;;;;5118426;28;20263;-72
2023/12/09 00:30:30;;;;;;;15.87;8.20;;;6.30;99.90;;;;;;5117053;28;20172;-72
2023/12/09 00:32:56;;;;;;;11.07;7.90;;;6.30;99.90;;;;;;5115248;28;20251;-72
2023/12/09 00:35:22;;;;;;;17.00;9.23;;;6.40;99.90;;;;;;5096827;28;20181;-72
2023/12/09 00:37:48;;;;;;;13.20;8.27;;;6.30;99.90;;;;;;5116280;28;20562;-71
2023/12/09 00:40:15;;;;;;;13.83;8.23;;;6.40;99.90;;;;;;5116011;28;20203;-71
2023/12/09 00:42:40;;;;;;;15.43;7.80;;;6.30;99.90;;;;;;5115113;28;20642;-72
2023/12/09 00:45:06;;;;;;;12.63;8.40;;;6.40;99.90;;;;;;5115271;28;20188;-71
2023/12/09 00:47:32;;;;;;;10.03;7.87;;;6.50;99.90;;;;;;5115257;28;20211;-72
2023/12/09 00:49:58;;;;;;;9.17;7.97;;;6.50;99.90;;;;;;5114940;28;20176;-72
2023/12/09 00:52:24;;;;;;;10.53;7.83;;;6.50;99.90;;;;;;5114764;28;20252;-72
2023/12/09 00:54:49;;;;;;;14.63;8.67;;;6.60;99.90;;;;;;5114618;28;20183;-72
2023/12/09 00:57:15;;;;;;;11.30;7.60;;;6.70;99.90;;;;;;5114582;28;20203;-72
2023/12/09 00:59:41;;;;;;;10.90;7.40;;;6.70;99.90;;;;;;5114596;28;20730;-72
2023/12/09 01:02:07;;;;;;;17.80;8.57;;;6.70;99.90;;;;;;5114780;28;20168;-72
2023/12/09 01:04:32;;;;;;;15.17;7.90;;;6.70;99.90;;;;;;5096313;28;20172;-72
2023/12/09 01:06:58;;;;;;;14.63;8.40;;;6.70;99.90;;;;;;5096457;28;20188;-71
2023/12/09 01:09:24;;;;;;;12.53;8.53;;;6.60;99.90;;;;;;5114469;28;20172;-71
2023/12/09 01:11:50;;;;;;;16.07;8.10;;;6.60;99.90;;;;;;5095941;28;20702;-71
2023/12/09 01:14:15;;;;;;;14.57;8.03;;;6.60;99.90;;;;;;5114830;28;20529;-71
2023/12/09 01:16:41;;;;;;;13.43;7.50;;;6.60;99.90;;;;;;5114290;28;20204;-72
2023/12/09 01:19:07;;;;;;;10.93;8.50;;;6.50;99.90;;;;;;5095871;28;20231;-71
2023/12/09 01:21:33;;;;;;;13.77;7.93;;;6.50;99.90;;;;;;5113190;28;20169;-71
2023/12/09 01:23:59;;;;;;;13.07;8.10;;;6.50;99.90;;;;;;5114200;28;20172;-71
2023/12/09 01:26:25;;;;;;;13.77;7.77;;;6.50;99.90;;;;;;5113823;28;20543;-72
2023/12/09 01:28:50;;;;;;;17.80;9.00;;;6.50;99.90;;;;;;5114078;28;20201;-72
2023/12/09 01:31:16;;;;;;;11.57;8.30;;;6.50;99.90;;;;;;5114000;28;20210;-72
2023/12/09 01:33:42;;;;;;;9.53;7.40;;;6.50;99.90;;;;;;5095730;28;20184;-72
2023/12/09 01:36:08;;;;;;;13.73;8.07;;;6.60;99.90;;;;;;5113988;28;20592;-72
2023/12/09 01:38:35;;;;;;;14.07;7.87;;;6.50;99.90;;;;;;5114054;28;20200;-72
2023/12/09 01:41:01;;;;;;;14.87;8.03;;;6.60;99.90;;;;;;5113931;28;20164;-72
2023/12/09 01:43:26;;;;;;;12.97;7.87;;;6.50;99.90;;;;;;5113597;28;20173;-72
2023/12/09 01:46:06;;;;;;;12.90;7.30;;;6.50;99.90;;;;;;5113757;28;20188;-72
2023/12/09 01:48:36;;;;;;;10.17;8.00;;;6.50;99.90;;;;;;5114045;28;20662;-72
2023/12/09 01:51:04;;;;;;;14.63;8.10;;;6.50;99.90;;;;;;5113751;28;20172;-72
2023/12/09 01:53:31;;;;;;;12.60;8.13;;;6.50;99.90;;;;;;5095523;28;20172;-72
2023/12/09 01:56:03;;;;;;;13.87;7.07;;;6.50;99.90;;;;;;5113909;28;20176;-72
2023/12/09 01:58:30;;;;;;;13.13;7.23;;;6.50;99.90;;;;;;5113736;28;20207;-73
2023/12/09 02:00:56;;;;;;;10.03;6.70;;;6.50;99.90;;;;;;5113999;28;20156;-72
2023/12/09 02:03:22;;;;;;;21.47;7.90;;;6.50;99.90;;;;;;5095619;28;20195;-72
2023/12/09 02:05:48;;;;;;;12.13;7.57;;;6.50;99.90;;;;;;5113633;28;20175;-72
2023/12/09 02:08:13;;;;;;;11.20;7.10;;;6.50;99.90;;;;;;5113530;28;20184;-72
2023/12/09 02:10:39;;;;;;;16.73;7.50;;;6.50;99.90;;;;;;5095130;28;20181;-72
2023/12/09 02:13:17;;;;;;;11.93;8.87;;;6.50;99.90;;;;;;5113233;28;20203;-71
2023/12/09 02:16:05;;;;;;;12.57;7.00;;;6.50;99.90;;;;;;5113471;28;20152;-72
2023/12/09 02:18:32;;;;;;;11.30;6.77;;;6.50;99.90;;;;;;5113648;28;20192;-72
2023/12/09 02:20:57;;;;;;;12.23;7.57;;;6.50;99.90;;;;;;5113431;28;20168;-72
2023/12/09 02:23:23;;;;;;;15.20;7.40;;;6.50;99.90;;;;;;5113545;28;20168;-72
2023/12/09 02:25:53;;;;;;;13.30;7.87;;;6.40;99.90;;;;;;5113381;28;20177;-72
2023/12/09 02:28:25;;;;;;;11.10;7.67;;;6.40;99.90;;;;;;5113004;28;20196;-72
2023/12/09 02:31:05;;;;;;;11.50;7.03;;;6.40;99.90;;;;;;5113956;28;20153;-72
2023/12/09 02:33:31;;;;;;;12.87;7.00;;;6.40;99.90;;;;;;5116013;28;20701;-71
2023/12/09 02:36:01;;;;;;;19.47;6.90;;;6.30;99.90;;;;;;5098931;28;20177;-71
2023/12/09 02:38:28;;;;;;;10.73;7.10;;;6.30;99.90;;;;;;5117198;28;20293;-71
2023/12/09 02:40:55;;;;;;;13.37;7.70;;;6.30;99.90;;;;;;5117847;28;20685;-71
2023/12/09 02:43:21;;;;;;;12.93;7.30;;;6.30;99.90;;;;;;5117263;28;20169;-71
2023/12/09 02:45:46;;;;;;;15.43;6.90;;;6.30;99.90;;;;;;5098530;28;20199;-71
2023/12/09 02:48:12;;;;;;;9.57;6.93;;;6.30;99.90;;;;;;5117040;28;20244;-71
2023/12/09 02:50:38;;;;;;;9.43;6.70;;;6.30;99.90;;;;;;5117112;28;20180;-71
2023/12/09 02:53:04;;;;;;;14.17;7.70;;;6.30;99.90;;;;;;5098571;28;20177;-71
2023/12/09 02:55:30;;;;;;;11.70;7.23;;;6.30;99.90;;;;;;5098528;28;20658;-71
2023/12/09 02:57:56;;;;;;;12.53;7.23;;;6.30;99.90;;;;;;5116549;28;20203;-71
2023/12/09 03:00:21;;;;;;;9.70;6.77;;;6.30;99.90;;;;;;5116690;28;20584;-71
2023/12/09 03:02:47;;;;;;;11.67;7.03;;;6.20;99.90;;;;;;5116746;28;20169;-71
2023/12/09 03:05:13;;;;;;;13.23;7.07;;;6.20;99.90;;;;;;5116592;28;20175;-71
2023/12/09 03:07:39;;;;;;;10.03;6.90;;;6.20;99.90;;;;;;5116586;28;20199;-71
2023/12/09 03:10:05;;;;;;;13.00;7.77;;;6.20;99.90;;;;;;5116593;28;20275;-71
2023/12/09 03:12:31;;;;;;;16.43;7.07;;;6.30;99.90;;;;;;5097886;28;20303;-71
2023/12/09 03:14:57;;;;;;;10.40;6.53;;;6.40;99.90;;;;;;5098270;28;20685;-71
2023/12/09 03:17:24;;;;;;;11.33;6.60;;;6.40;99.90;;;;;;5098017;28;20286;-72
2023/12/09 03:19:50;;;;;;;17.73;7.03;;;6.50;99.90;;;;;;5098066;28;20197;-71
2023/12/09 03:22:15;;;;;;;11.70;7.30;;;6.60;99.90;;;;;;5116889;28;20222;-71
2023/12/09 03:24:44;;;;;;;15.50;7.60;;;6.60;99.90;;;;;;5116711;28;20183;-71
2023/12/09 03:27:10;;;;;;;12.10;7.37;;;6.60;99.90;;;;;;5116040;28;20184;-71
2023/12/09 03:29:36;;;;;;;12.53;6.97;;;6.60;99.90;;;;;;5116245;28;20547;-71
2023/12/09 03:32:02;;;;;;;14.63;7.27;;;6.60;99.90;;;;;;5116195;28;20169;-72
2023/12/09 03:34:28;;;;;;;13.33;7.70;;;6.60;99.90;;;;;;5116185;28;20703;-72
2023/12/09 03:36:53;;;;;;;10.23;6.90;;;6.50;99.90;;;;;;5116225;28;20196;-71
2023/12/09 03:39:19;;;;;;;14.07;7.77;;;6.50;99.90;;;;;;5115845;28;20222;-71
2023/12/09 03:41:45;;;;;;;13.47;6.93;;;6.40;99.90;;;;;;5115639;28;20175;-72
2023/12/09 03:44:11;;;;;;;13.47;7.57;;;6.40;99.90;;;;;;5096634;28;20173;-71
2023/12/09 03:46:37;;;;;;;13.60;6.90;;;6.40;99.90;;;;;;5116001;28;20650;-72
2023/12/09 03:49:03;;;;;;;19.57;8.03;;;6.30;99.90;;;;;;5116100;28;20176;-71
2023/12/09 03:51:28;;;;;;;13.63;7.30;;;6.30;99.90;;;;;;5115820;28;20184;-70
2023/12/09 03:53:54;;;;;;;12.73;7.77;;;6.40;99.90;;;;;;5097412;28;20176;-71
2023/12/09 03:56:23;;;;;;;12.13;7.03;;;6.40;99.90;;;;;;5097276;28;20183;-71
2023/12/09 03:58:50;;;;;;;12.33;7.37;;;6.30;99.90;;;;;;5115129;28;20204;-71
2023/12/09 04:01:16;;;;;;;9.17;7.00;;;6.30;99.90;;;;;;5116166;28;20251;-72
2023/12/09 04:03:41;;;;;;;11.60;6.90;;;6.40;99.90;;;;;;5115532;28;20203;-71
2023/12/09 04:06:07;;;;;;;14.10;6.93;;;6.40;99.90;;;;;;5097239;28;20651;-71
2023/12/09 04:08:33;;;;;;;13.83;7.40;;;6.40;99.90;;;;;;5097008;28;20574;-71
2023/12/09 04:10:59;;;;;;;14.37;7.60;;;6.50;99.90;;;;;;5116434;28;20217;-72
2023/12/09 04:13:24;;;;;;;13.80;7.40;;;6.40;99.90;;;;;;5115419;28;20180;-71
2023/12/09 04:15:50;;;;;;;13.30;6.60;;;6.50;99.90;;;;;;5115607;28;20607;-71
2023/12/09 04:18:17;;;;;;;16.60;7.43;;;6.50;99.90;;;;;;5115177;28;20237;-71
2023/12/09 04:20:43;;;;;;;14.70;7.07;;;6.50;99.90;;;;;;5097077;28;20172;-72
2023/12/09 04:23:08;;;;;;;12.37;6.53;;;6.50;99.90;;;;;;5115227;28;20259;-71
2023/12/09 04:25:35;;;;;;;9.73;6.97;;;6.50;99.90;;;;;;5115090;28;20221;-72
2023/12/09 04:28:01;;;;;;;10.53;7.00;;;6.60;99.90;;;;;;5096542;28;20196;-71
2023/12/09 04:30:28;;;;;;;13.90;7.27;;;6.60;99.90;;;;;;5114977;28;20176;-72
2023/12/09 04:32:53;;;;;;;14.07;7.13;;;6.50;99.90;;;;;;5115512;28;20161;-72
2023/12/09 04:35:19;;;;;;;13.73;7.17;;;6.50;99.90;;;;;;5115211;28;20176;-72
2023/12/09 04:37:46;;;;;;;12.00;6.93;;;6.50;99.90;;;;;;5096582;28;20681;-72
2023/12/09 04:40:12;;;;;;;13.00;6.93;;;6.50;99.90;;;;;;5096351;28;20200;-71
2023/12/09 04:42:40;;;;;;;10.30;7.17;;;6.40;99.90;;;;;;5114566;28;20657;-72
2023/12/09 04:45:07;;;;;;;14.37;7.60;;;6.40;99.90;;;;;;5114666;28;20219;-71
2023/12/09 04:47:33;;;;;;;11.73;7.00;;;6.50;99.90;;;;;;5114819;28;20188;-71
2023/12/09 04:50:00;;;;;;;13.83;6.97;;;6.40;99.90;;;;;;5096401;28;20180;-72
2023/12/09 04:52:26;;;;;;;12.33;6.87;;;6.40;99.90;;;;;;5114518;28;20194;-72
2023/12/09 04:54:52;;;;;;;19.03;7.43;;;6.40;99.90;;;;;;5096171;28;20181;-71
2023/12/09 04:57:17;;;;;;;12.00;7.03;;;6.40;99.90;;;;;;5095608;28;20207;-72
2023/12/09 04:59:43;;;;;;;11.47;7.17;;;6.40;99.90;;;;;;5096078;28;20204;-71
2023/12/09 05:02:09;;;;;;;12.50;7.20;;;6.40;99.90;;;;;;5114358;28;20175;-71
2023/12/09 05:04:35;;;;;;;14.43;6.80;;;6.40;99.90;;;;;;5114694;28;20157;-71
2023/12/09 05:07:01;;;;;;;13.77;7.37;;;6.30;99.90;;;;;;5114307;28;20283;-71
2023/12/09 05:09:27;;;;;;;9.27;7.20;;;6.30;99.90;;;;;;5114313;28;20260;-71
2023/12/09 05:11:53;;;;;;;12.40;7.00;;;6.30;99.90;;;;;;5095939;28;20229;-72
2023/12/09 05:14:19;;;;;;;18.83;7.63;;;6.30;99.90;;;;;;5095518;28;20184;-72
2023/12/09 05:16:44;;;;;;;9.03;6.37;;;6.30;99.90;;;;;;5114292;28;20172;-72
2023/12/09 05:19:10;;;;;;;13.77;7.77;;;6.20;99.90;;;;;;5114492;28;20200;-72
2023/12/09 05:21:36;;;;;;;11.87;8.00;;;6.20;99.90;;;;;;5114005;28;20252;-72
2023/12/09 05:24:03;;;;;;;13.40;7.00;;;6.20;99.90;;;;;;5114048;28;20176;-72
2023/12/09 05:26:29;;;;;;;11.30;8.10;;;6.20;99.90;;;;;;5113969;28;20192;-72
2023/12/09 05:28:55;;;;;;;10.37;7.27;;;6.30;99.90;;;;;;5113685;28;20671;-72
2023/12/09 05:31:22;;;;;;;15.50;6.77;;;6.20;99.90;;;;;;5114002;28;20176;-71
2023/12/09 05:33:48;;;;;;;11.60;6.97;;;6.30;99.90;;;;;;5114196;28;20185;-71
2023/12/09 05:36:14;;;;;;;11.30;7.10;;;6.30;99.90;;;;;;5113956;28;20172;-71
2023/12/09 05:38:43;;;;;;;18.50;7.03;;;6.30;99.90;;;;;;5095548;28;20215;-73
2023/12/09 05:41:10;;;;;;;13.67;7.57;;;6.30;99.90;;;;;;5113925;28;20530;-72
2023/12/09 05:43:36;;;;;;;8.23;6.87;;;6.20;99.90;;;;;;5113468;28;20172;-72
2023/12/09 05:46:03;;;;;;;13.60;7.17;;;6.20;99.90;;;;;;5113532;28;20559;-72
2023/12/09 05:48:29;;;;;;;13.30;7.23;;;6.20;99.90;;;;;;5113789;28;20715;-72
2023/12/09 05:50:55;;;;;;;13.00;7.47;;;6.20;99.90;;;;;;5113671;28;20191;-71
2023/12/09 05:53:22;;;;;;;9.70;7.70;;;6.10;99.90;;;;;;5113955;28;20530;-72
2023/12/09 05:55:47;;;;;;;9.10;7.53;;;6.20;99.90;;;;;;5113541;28;20177;-73
2023/12/09 05:58:13;;;;;;;15.43;7.37;;;6.10;99.90;;;;;;5113311;28;20601;-72
2023/12/09 06:00:39;;;;;;;12.47;7.50;;;6.10;99.90;;;;;;5113459;28;20575;-72
2023/12/09 06:03:05;;;;;;;10.83;7.40;;;6.10;99.90;;;;;;5113476;28;20203;-72
2023/12/09 06:05:30;;;;;;;13.47;7.47;;;6.10;99.90;;;;;;5095305;28;20624;-72
2023/12/09 06:07:56;;;;;;;10.90;7.13;;;6.10;99.90;;;;;;5116903;28;20241;-72
2023/12/09 06:10:22;;;;;;;9.10;7.70;;;6.10;99.90;;;;;;5120519;27;20180;-72
2023/12/09 06:12:48;;;;;;;12.67;7.37;;;6.20;99.90;;;;;;5120469;28;20200;-72
2023/12/09 06:15:14;;;;;;;9.83;6.63;;;6.10;99.90;;;;;;5120491;28;20175;-72
2023/12/09 06:17:39;;;;;;;11.77;6.90;;;6.10;99.90;;;;;;5102224;28;20578;-72
2023/12/09 06:20:08;;;;;;;9.10;6.53;;;6.10;99.90;;;;;;5102305;28;20252;-73
2023/12/09 06:22:34;;;;;;;13.77;7.27;;;6.10;99.90;;;;;;5120862;28;20251;-73
2023/12/09 06:24:59;;;;;;;9.27;7.07;;;6.10;99.90;;;;;;5120734;28;20248;-73
2023/12/09 06:27:25;;;;;;;10.53;7.03;;;6.00;99.90;;;;;;5120370;28;20310;-73
2023/12/09 06:29:51;;;;;;;10.33;7.07;;;6.10;99.90;;;;;;5120244;28;20173;-73
2023/12/09 06:32:17;;;;;;;11.83;6.73;;;6.10;99.90;;;;;;5120132;28;20179;-73
2023/12/09 06:34:43;;;;;;;6.97;6.27;;;6.10;99.90;;;;;;5102035;28;20266;-73
2023/12/09 06:37:09;;;;;;;8.50;6.70;;;6.10;99.90;;;;;;5120069;28;20200;-73
2023/12/09 06:39:35;;;;;;;8.43;6.70;;;6.10;99.90;;;;;;5119918;27;20201;-73
2023/12/09 06:42:01;;;;;;;9.87;6.70;;;6.10;99.90;;;;;;5120428;28;20200;-73
2023/12/09 06:44:27;;;;;;;10.13;7.10;;;6.10;99.90;;;;;;5120538;28;20594;-71
2023/12/09 06:46:53;;;;;;;11.50;7.07;;;6.20;99.90;;;;;;5120682;28;20218;-72
2023/12/09 06:49:19;;;;;;;9.70;6.40;;;6.20;99.90;;;;;;5120745;28;20195;-72
2023/12/09 06:51:49;;;;;;;15.90;7.20;;;6.20;99.90;;;;;;5120208;28;20199;-73
2023/12/09 06:54:15;;;;;;;10.37;6.73;;;6.20;99.90;;;;;;5101785;28;20172;-72
2023/12/09 06:56:41;;;;;;;9.77;6.40;;;6.30;99.90;;;;;;5119963;28;20272;-72
2023/12/09 06:59:07;;;;;;;10.33;6.70;;;6.20;99.90;;;;;;5101369;28;20746;-72
2023/12/09 07:01:33;;;;;;;9.33;6.93;;;6.20;99.90;;;;;;5119868;28;20164;-72
2023/12/09 07:03:59;;;;;;;6.80;6.10;;;6.20;99.90;;;;;;5119787;28;20248;-72
2023/12/09 07:06:26;;;;;;;9.17;6.27;;;6.10;99.90;;;;;;5120032;28;20179;-72
2023/12/09 07:08:53;;;;;;;8.43;6.47;;;6.10;99.90;;;;;;5119759;27;20204;-72
2023/12/09 07:11:22;;;;;;;8.40;6.30;;;6.10;99.90;;;;;;5101410;28;20180;-72
2023/12/09 07:13:49;;;;;;;7.77;6.53;;;6.10;99.90;;;;;;5101216;28;20180;-72
2023/12/09 07:16:15;;;;;;;8.23;5.93;;;6.10;99.90;;;;;;5119731;28;20251;-72
2023/12/09 07:18:46;;;;;;;10.47;6.70;;;6.00;99.90;;;;;;5118820;28;20590;-72
2023/12/09 07:21:15;;;;;;;7.23;5.30;;;6.00;99.90;;;;;;5116658;28;20161;-72
2023/12/09 07:23:41;;;;;;;7.60;6.07;;;6.00;99.90;;;;;;5116341;28;20173;-72
2023/12/09 07:26:07;;;;;;;10.03;6.57;;;6.00;99.90;;;;;;5116373;28;20169;-72
2023/12/09 07:28:33;;;;;;;10.03;6.50;;;5.90;99.90;;;;;;5116078;28;20195;-72
2023/12/09 07:31:00;;;;;;;9.13;6.43;;;5.90;99.90;;;;;;5116677;28;20217;-72
2023/12/09 07:33:26;;;;;;;9.30;7.20;;;5.90;99.90;;;;;;5098048;28;20179;-72
2023/12/09 07:35:52;;;;;;;7.93;6.63;;;5.90;99.90;;;;;;5097839;28;20693;-72
2023/12/09 07:38:18;;;;;;;7.00;6.30;;;6.00;99.90;;;;;;5116062;28;20184;-72
2023/12/09 07:40:44;;;;;;;7.63;6.23;;;6.00;99.90;;;;;;5115933;28;20227;-73
2023/12/09 07:43:10;;;;;;;9.73;6.30;;;6.00;99.90;;;;;;5115652;28;20742;-73
2023/12/09 07:45:36;;;;;;;8.80;6.10;;;6.10;99.90;;;;;;5115847;28;20184;-73
2023/12/09 07:48:03;;;;;;;9.00;6.20;;;6.00;99.90;;;;;;5115890;28;20732;-73
2023/12/09 07:50:32;;;;;;;12.70;6.83;;;6.10;99.90;;;;;;5097794;28;20180;-73
2023/12/09 07:52:59;;;;;;;9.70;6.50;;;6.10;99.90;;;;;;5097666;28;20184;-72
2023/12/09 07:55:25;;;;;;;7.27;6.37;;;6.10;99.90;;;;;;5115865;28;20164;-72
2023/12/09 07:57:50;;;;;;;7.80;5.67;;;6.10;99.90;;;;;;5097240;28;20571;-73
2023/12/09 08:00:17;;;;;;;7.07;6.27;;;6.10;99.90;;;;;;5115698;28;20249;-73
2023/12/09 08:02:43;;;;;;;12.50;6.00;;;6.10;99.90;;;;;;5097497;28;20200;-72
2023/12/09 08:05:09;;;;;;;8.80;6.20;;;6.10;99.90;;;;;;5115905;28;20263;-72
2023/12/09 08:07:35;;;;;;;10.43;6.10;;;6.10;99.90;;;;;;5115592;28;20219;-72
2023/12/09 08:10:01;;;;;;;10.40;5.90;;;6.10;99.90;;;;;;5097212;28;20188;-72
2023/12/09 08:12:27;;;;;;;8.33;6.03;;;6.20;99.90;;;;;;5115776;28;20223;-72
2023/12/09 08:14:52;;;;;;;11.87;6.93;;;6.10;99.90;;;;;;5115290;28;20658;-72
2023/12/09 08:17:18;;;;;;;10.57;6.37;;;6.20;99.90;;;;;;5097235;28;20203;-72
2023/12/09 08:19:44;;;;;;;13.70;6.10;;;6.20;99.90;;;;;;5115791;28;20242;-72
2023/12/09 08:22:10;;;;;;;9.83;5.93;;;6.30;99.90;;;;;;5097098;28;20181;-72
2023/12/09 08:24:36;;;;;;;7.93;6.00;;;6.40;99.90;;;;;;5115329;28;20172;-72
2023/12/09 08:27:01;;;;;;;8.60;5.90;;;6.40;99.90;;;;;;5115088;28;20674;-72
2023/12/09 08:29:27;;;;;;;6.77;6.00;;;6.50;99.90;;;;;;5096708;28;20172;-72
2023/12/09 08:31:53;;;;;;;10.00;5.80;;;6.50;99.90;;;;;;5114786;28;20221;-71
2023/12/09 08:34:19;;;;;;;10.23;6.33;;;6.50;99.90;;;;;;5115002;28;20229;-72
2023/12/09 08:36:45;;;;;;;9.70;5.70;;;6.60;99.90;;;;;;5096783;28;20176;-72
2023/12/09 08:39:11;;;;;;;8.33;5.33;;;6.70;99.90;;;;;;5115286;28;20352;-72
2023/12/09 08:41:37;;;;;;;14.33;6.10;;;6.70;99.90;;;;;;5097054;28;20569;-72
2023/12/09 08:44:04;;;;;;;9.53;5.73;;;6.70;99.90;;;;;;5114676;28;20168;-72
2023/12/09 08:46:32;;;;;;;9.57;5.60;;;6.70;99.90;;;;;;5114920;28;20223;-72
2023/12/09 08:48:58;;;;;;;7.43;5.43;;;6.70;99.90;;;;;;5115156;28;20169;-72
2023/12/09 08:51:24;;;;;;;8.17;5.27;;;6.70;99.90;;;;;;5114690;28;20183;-72
2023/12/09 08:53:50;;;;;;;7.00;5.30;;;6.80;99.90;;;;;;5096303;28;20275;-71
2023/12/09 08:56:16;;;;;;;12.10;6.00;;;6.80;99.90;;;;;;5096297;28;20187;-72
2023/12/09 08:58:42;;;;;;;8.90;5.47;;;6.80;99.90;;;;;;5114206;28;20222;-72
2023/12/09 09:01:08;;;;;;;5.40;4.90;;;6.90;99.90;;;;;;5096201;28;20172;-72
2023/12/09 09:03:34;;;;;;;7.87;5.07;;;7.10;99.90;;;;;;5096233;28;20179;-72
2023/12/09 09:05:59;;;;;;;9.73;5.47;;;7.10;99.90;;;;;;5096282;28;20522;-70
2023/12/09 09:08:25;;;;;;;7.63;5.17;;;7.20;99.90;;;;;;5114462;28;20188;-69
2023/12/09 09:10:51;;;;;;;12.27;5.00;;;7.20;99.90;;;;;;5096668;28;20661;-68
2023/12/09 09:13:17;;;;;;;12.07;5.30;;;7.30;99.90;;;;;;5114530;28;20172;-69
2023/12/09 09:15:43;;;;;;;13.07;6.03;;;7.30;99.90;;;;;;5114976;28;20173;-69
2023/12/09 09:18:08;;;;;;;7.70;5.77;;;7.30;99.90;;;;;;5114395;28;20192;-69
2023/12/09 09:20:34;;;;;;;13.27;5.50;;;7.30;99.90;;;;;;5114317;28;20196;-69
2023/12/09 09:23:00;;;;;;;14.10;6.30;;;7.40;99.90;;;;;;5114399;28;20165;-69
2023/12/09 09:25:26;;;;;;;12.80;5.40;;;7.40;99.90;;;;;;5114526;28;20179;-69
2023/12/09 09:27:52;;;;;;;13.50;5.93;;;7.50;99.90;;;;;;5114231;28;20214;-69
2023/12/09 09:30:22;;;;;;;9.37;5.77;;;7.50;99.90;;;;;;5114536;28;20168;-69
2023/12/09 09:32:48;;;;;;;11.90;5.73;;;7.50;99.90;;;;;;5114858;28;20205;-69
2023/12/09 09:35:14;;;;;;;10.37;5.63;;;7.60;99.90;;;;;;5114058;28;20601;-70
2023/12/09 09:37:40;;;;;;;10.07;5.80;;;7.60;99.90;;;;;;5095735;28;20634;-70
2023/12/09 09:40:06;;;;;;;11.83;5.37;;;7.60;99.90;;;;;;5113817;28;20287;-70
2023/12/09 09:42:32;;;;;;;8.97;5.40;;;7.70;99.90;;;;;;5112611;28;20647;-70
2023/12/09 09:45:27;;;;;;;10.10;5.60;;;7.70;99.90;;;;;;5113566;28;20165;-70
2023/12/09 09:47:55;;;;;;;13.07;5.90;;;7.80;99.90;;;;;;5095908;28;20204;-70
2023/12/09 09:50:22;;;;;;;10.03;5.40;;;7.90;99.90;;;;;;5095353;28;20200;-70
2023/12/09 09:52:49;;;;;;;7.73;5.17;;;8.10;99.90;;;;;;5095320;28;20215;-70
2023/12/09 09:55:22;;;;;;;15.67;5.60;;;8.20;99.90;;;;;;5095657;28;20172;-70
2023/12/09 09:57:48;;;;;;;9.10;5.20;;;8.30;99.90;;;;;;5114306;28;20184;-70
2023/12/09 10:00:16;;;;;;;12.40;5.67;;;8.30;99.90;;;;;;5095160;28;20224;-70
2023/12/09 10:02:47;;;;;;;10.43;5.70;;;8.20;99.90;;;;;;5095822;28;20677;-70
2023/12/09 10:05:20;;;;;;;11.73;5.53;;;8.20;99.90;;;;;;5113919;28;20525;-70
2023/12/09 10:07:46;;;;;;;15.53;5.77;;;8.20;99.90;;;;;;5114262;28;20203;-71
2023/12/09 10:10:14;;;;;;;8.57;6.20;;;8.20;99.90;;;;;;5095595;28;20185;-69
2023/12/09 10:12:40;;;;;;;7.50;5.40;;;8.20;99.90;;;;;;5114181;28;20225;-71
2023/12/09 10:15:07;;;;;;;11.07;6.20;;;8.20;99.90;;;;;;5095208;28;20312;-70
2023/12/09 10:17:33;;;;;;;10.80;6.10;;;8.10;99.90;;;;;;5095384;28;20222;-70
2023/12/09 10:19:59;;;;;;;11.60;5.90;;;8.10;99.90;;;;;;5113901;28;20203;-70
2023/12/09 10:22:26;;;;;;;9.73;5.77;;;8.10;99.90;;;;;;5114037;28;20675;-71
2023/12/09 10:24:53;;;;;;;8.23;5.87;;;8.10;99.90;;;;;;5114029;28;20168;-71
2023/12/09 10:27:20;;;;;;;11.33;5.80;;;8.10;99.90;;;;;;5095131;28;20249;-70
2023/12/09 10:29:46;;;;;;;9.13;5.73;;;8.00;99.90;;;;;;5113281;28;20168;-69
2023/12/09 10:32:12;;;;;;;10.57;5.60;;;8.10;99.90;;;;;;5113400;28;20180;-70
2023/12/09 10:34:39;;;;;;;9.47;5.33;;;8.10;99.90;;;;;;5095410;28;20226;-70
2023/12/09 10:37:12;;;;;;;11.53;5.67;;;8.00;99.90;;;;;;5095620;28;20233;-70
2023/12/09 10:39:43;;;;;;;9.43;5.37;;;8.00;99.90;;;;;;5096230;28;20204;-70
2023/12/09 10:42:12;;;;;;;10.23;5.17;;;8.00;99.90;;;;;;5114069;28;20679;-71
2023/12/09 10:44:38;;;;;;;14.70;5.67;;;8.00;99.90;;;;;;5113366;28;20583;-71
2023/12/09 10:47:04;;;;;;;12.20;5.77;;;7.90;99.90;;;;;;5113370;28;20608;-69
2023/12/09 10:49:31;;;;;;;12.40;5.70;;;7.90;99.90;;;;;;5094942;28;20188;-69
2023/12/09 10:51:56;;;;;;;12.97;5.80;;;7.90;99.90;;;;;;5113676;28;20200;-70
2023/12/09 10:54:22;;;;;;;9.53;5.97;;;7.90;99.90;;;;;;5115211;28;20723;-70
2023/12/09 10:56:49;;;;;;;11.23;5.60;;;8.00;99.90;;;;;;5117152;28;20176;-70
2023/12/09 10:59:18;;;;;;;11.43;5.70;;;8.00;99.90;;;;;;5098446;28;20238;-69
2023/12/09 11:01:47;;;;;;;12.03;6.00;;;8.00;99.90;;;;;;5116923;28;20256;-70
2023/12/09 11:04:14;;;;;;;11.67;5.57;;;8.00;99.90;;;;;;5117131;28;20663;-70
2023/12/09 11:06:44;;;;;;;11.00;5.53;;;8.00;99.90;;;;;;5098681;28;20180;-69
2023/12/09 11:09:13;;;;;;;18.27;6.00;;;8.00;99.90;;;;;;5098413;28;20215;-70
2023/12/09 11:11:41;;;;;;;10.53;5.70;;;8.10;99.90;;;;;;5116822;28;20588;-70
2023/12/09 11:14:09;;;;;;;8.40;5.83;;;8.10;99.90;;;;;;5098332;28;20205;-70
2023/12/09 11:16:42;;;;;;;13.47;5.27;;;8.10;99.90;;;;;;5098488;28;20604;-69
2023/12/09 11:19:16;;;;;;;13.47;6.00;;;8.10;99.90;;;;;;5116986;28;20185;-70
2023/12/09 11:21:46;;;;;;;10.13;5.20;;;8.10;99.90;;;;;;5098366;28;20164;-70
2023/12/09 11:24:13;;;;;;;7.17;5.73;;;8.10;99.90;;;;;;5098150;28;20655;-70
2023/12/09 11:26:41;;;;;;;9.73;5.93;;;8.20;99.90;;;;;;5116418;28;20210;-70
2023/12/09 11:29:08;;;;;;;11.67;5.47;;;8.20;99.90;;;;;;5116150;28;20211;-70
2023/12/09 11:31:46;;;;;;;11.37;5.77;;;8.20;99.90;;;;;;5116344;28;20204;-70
2023/12/09 11:34:22;;;;;;;13.13;5.97;;;8.20;99.90;;;;;;5116952;28;20209;-70
2023/12/09 11:36:52;;;;;;;14.07;5.93;;;8.20;99.90;;;;;;5098177;28;20203;-70
2023/12/09 11:39:20;;;;;;;10.30;5.90;;;8.20;99.90;;;;;;5116408;28;20299;-70
2023/12/09 11:41:47;;;;;;;12.03;5.73;;;8.20;99.90;;;;;;5116248;28;20169;-70
2023/12/09 11:44:14;;;;;;;11.27;5.20;;;8.20;99.90;;;;;;5115801;28;20184;-70
2023/12/09 11:46:40;;;;;;;6.87;5.30;;;8.30;99.90;;;;;;5097604;28;20245;-70
2023/12/09 11:49:06;;;;;;;14.33;5.87;;;8.30;99.90;;;;;;5116470;28;20547;-70
2023/12/09 11:51:37;;;;;;;14.87;5.50;;;8.30;99.90;;;;;;5115992;28;20176;-70
2023/12/09 11:54:08;;;;;;;11.30;5.43;;;8.30;99.90;;;;;;5116518;28;20161;-70
2023/12/09 11:56:34;;;;;;;10.80;5.47;;;8.30;99.90;;;;;;5115985;28;20638;-71
2023/12/09 11:59:00;;;;;;;15.13;6.63;;;8.30;99.90;;;;;;5115748;28;20218;-70
2023/12/09 12:01:29;;;;;;;12.10;5.93;;;8.30;99.90;;;;;;5115865;28;20600;-70
2023/12/09 12:03:55;;;;;;;13.93;6.03;;;8.30;99.90;;;;;;5116087;28;20192;-70
2023/12/09 12:06:22;;;;;;;12.27;5.70;;;8.20;99.90;;;;;;5115117;28;20627;-70
2023/12/09 12:08:49;;;;;;;12.90;6.30;;;8.20;99.90;;;;;;5097517;28;20597;-69
2023/12/09 12:11:17;;;;;;;11.97;6.00;;;8.20;99.90;;;;;;5097494;28;20183;-71
2023/12/09 12:13:43;;;;;;;11.97;6.00;;;8.10;99.90;;;;;;5115638;28;20593;-71
2023/12/09 12:16:10;;;;;;;12.00;6.20;;;8.10;99.90;;;;;;5115710;28;20180;-71
2023/12/09 12:18:36;;;;;;;8.93;5.60;;;8.10;99.90;;;;;;5097180;28;20586;-71
2023/12/09 12:21:03;;;;;;;12.17;5.60;;;8.10;99.90;;;;;;5115583;28;20655;-70
2023/12/09 12:23:29;;;;;;;11.67;6.13;;;8.10;99.90;;;;;;5115468;28;20156;-70
2023/12/09 12:25:56;;;;;;;11.13;5.93;;;8.10;99.90;;;;;;5097122;28;20173;-70
2023/12/09 12:28:23;;;;;;;14.00;5.77;;;8.00;99.90;;;;;;5115079;28;20248;-71
2023/12/09 12:30:52;;;;;;;12.77;5.37;;;8.00;99.90;;;;;;5115708;28;20211;-71
2023/12/09 12:33:21;;;;;;;11.87;6.27;;;8.00;99.90;;;;;;5097010;28;20229;-70
2023/12/09 12:35:52;;;;;;;12.23;5.77;;;8.00;99.90;;;;;;5115308;28;20187;-71
2023/12/09 12:38:25;;;;;;;8.73;5.80;;;8.00;99.90;;;;;;5097145;28;20282;-70
2023/12/09 12:40:52;;;;;;;10.00;6.43;;;8.00;99.90;;;;;;5097083;28;20280;-71
2023/12/09 12:43:18;;;;;;;13.53;6.70;;;8.00;99.90;;;;;;5115556;28;20179;-71
2023/12/09 12:45:49;;;;;;;10.93;5.77;;;8.00;99.90;;;;;;5115043;28;20252;-70
2023/12/09 12:48:15;;;;;;;15.87;6.13;;;8.00;99.90;;;;;;5096750;28;20583;-71